createdAt,value
2023-05-16T06:55:03.143Z,98606.52
2023-05-16T06:57:30.380Z,98606.71
2023-05-16T06:59:57.242Z,98604.47
2023-05-16T07:02:24.184Z,98600.71
2023-05-16T07:04:51.150Z,98603.98
2023-05-16T07:07:17.986Z,98613.77
2023-05-16T07:09:44.950Z,98621.70
2023-05-16T07:12:11.798Z,98620.18
2023-05-16T07:14:39.034Z,98628.71
2023-05-16T07:17:05.940Z,98633.63
2023-05-16T07:19:32.909Z,98632.73
2023-05-16T07:21:59.789Z,98627.27
2023-05-16T07:24:26.958Z,98627.48
2023-05-16T07:26:53.793Z,98628.67
2023-05-16T07:29:20.730Z,98629.66
2023-05-16T07:31:47.776Z,98640.48
2023-05-16T07:34:14.705Z,98644.26
2023-05-16T07:36:41.753Z,98647.62
2023-05-16T07:39:08.701Z,98650.08
2023-05-16T07:41:35.605Z,98655.27
2023-05-16T07:44:02.425Z,98643.19
2023-05-16T07:46:29.434Z,98642.51
2023-05-16T07:48:56.471Z,98643.10
2023-05-16T07:51:23.472Z,98642.42
2023-05-16T07:53:50.400Z,98639.86
2023-05-16T07:56:17.456Z,98645.68
2023-05-16T07:58:44.393Z,98653.41
2023-05-16T08:01:12.111Z,98663.42
2023-05-16T08:03:39.344Z,98663.32
2023-05-16T08:06:06.565Z,98659.09
2023-05-16T08:08:33.544Z,98660.83
2023-05-16T08:11:00.465Z,98657.87
2023-05-16T08:13:27.322Z,98655.89
2023-05-16T08:15:54.324Z,98653.92
2023-05-16T08:18:22.489Z,98654.92
2023-05-16T08:20:49.801Z,98655.70
2023-05-16T08:23:16.791Z,98651.38
2023-05-16T08:25:43.845Z,98644.80
2023-05-16T08:28:10.885Z,98650.27
2023-05-16T08:30:38.428Z,98643.70
2023-05-16T08:33:07.004Z,98643.93
2023-05-16T08:35:35.558Z,98647.08
2023-05-16T08:38:03.441Z,98644.55
2023-05-16T08:40:31.608Z,98652.52
2023-05-16T08:42:58.657Z,98650.79
2023-05-16T08:45:25.705Z,98649.93
2023-05-16T08:47:54.928Z,98651.96
2023-05-16T08:50:21.888Z,98655.80
2023-05-16T08:52:50.016Z,98658.05
2023-05-16T08:55:16.901Z,98651.98
2023-05-16T08:57:43.764Z,98655.64
2023-05-16T09:00:14.008Z,98667.29
2023-05-16T09:02:47.215Z,98665.30
2023-05-16T09:05:15.478Z,98661.69
2023-05-16T09:07:42.628Z,98664.38
2023-05-16T09:10:10.496Z,98669.48
2023-05-16T09:12:38.010Z,98662.68
2023-05-16T09:15:06.277Z,98664.37
2023-05-16T09:17:42.559Z,98667.93
2023-05-16T09:20:17.789Z,98674.91
2023-05-16T09:22:55.645Z,98673.30
2023-05-16T09:27:58.184Z,98675.51
2023-05-16T09:30:30.192Z,98671.77
2023-05-16T09:32:57.226Z,98669.73
2023-05-16T09:35:39.877Z,98665.84
2023-05-16T09:38:15.818Z,98672.38
2023-05-16T09:40:42.832Z,98669.02
2023-05-16T09:43:09.714Z,98666.23
2023-05-16T09:45:37.012Z,98673.01
2023-05-16T09:48:09.413Z,98671.61
2023-05-16T09:50:37.163Z,98669.67
2023-05-16T09:53:04.197Z,98670.20
2023-05-16T09:55:31.643Z,98670.23
2023-05-16T09:57:58.597Z,98665.87
2023-05-16T10:00:32.591Z,98667.15
2023-05-16T10:03:03.453Z,98667.80
2023-05-16T10:05:31.519Z,98672.25
2023-05-16T10:07:58.590Z,98673.66
2023-05-16T10:10:25.780Z,98677.06
2023-05-16T10:12:52.654Z,98672.48
2023-05-16T10:15:19.623Z,98672.15
2023-05-16T10:17:48.468Z,98668.67
2023-05-16T10:20:15.582Z,98670.67
2023-05-16T10:22:45.571Z,98673.91
2023-05-16T10:25:20.863Z,98665.75
2023-05-16T10:27:47.804Z,98667.94
2023-05-16T10:30:15.088Z,98665.80
2023-05-16T10:32:43.092Z,98666.51
2023-05-16T10:35:10.299Z,98666.48
2023-05-16T10:37:37.290Z,98663.83
2023-05-16T10:40:06.031Z,98660.20
2023-05-16T10:42:33.905Z,98655.96
2023-05-16T10:45:19.970Z,98656.84
2023-05-16T10:47:53.668Z,98650.44
2023-05-16T10:50:40.063Z,98650.61
2023-05-16T10:53:19.771Z,98652.98
2023-05-16T10:55:50.040Z,98654.74
2023-05-16T10:58:43.995Z,98653.52
2023-05-16T11:01:30.636Z,98654.05
2023-05-16T11:03:57.902Z,98649.02
2023-05-16T11:06:28.581Z,98650.38
2023-05-16T11:09:11.052Z,98655.16
2023-05-16T11:12:03.448Z,98655.06
2023-05-16T11:14:34.901Z,98652.80
2023-05-16T11:17:08.650Z,98652.65
2023-05-16T11:19:46.936Z,98653.73
2023-05-16T11:22:20.027Z,98655.96
2023-05-16T11:25:02.955Z,98655.84
2023-05-16T11:27:34.426Z,98654.89
2023-05-16T11:30:07.693Z,98650.59
2023-05-16T11:32:35.785Z,98656.29
2023-05-16T11:35:03.940Z,98655.18
2023-05-16T11:37:31.291Z,98653.16
2023-05-16T11:40:02.689Z,98652.42
2023-05-16T11:42:39.394Z,98653.88
2023-05-16T11:45:07.878Z,98653.87
2023-05-16T11:47:37.213Z,98654.52
2023-05-16T11:50:06.885Z,98656.05
2023-05-16T11:52:33.885Z,98654.02
2023-05-16T11:55:01.650Z,98659.11
2023-05-16T11:57:28.580Z,98656.76
2023-05-16T11:59:55.806Z,98657.46
2023-05-16T12:02:22.825Z,98662.40
2023-05-16T12:04:50.775Z,98661.80
2023-05-16T12:07:18.003Z,98660.19
2023-05-16T12:09:53.662Z,98655.84
2023-05-16T12:12:21.030Z,98658.84
2023-05-16T12:14:47.984Z,98659.58
2023-05-16T12:17:14.887Z,98656.41
2023-05-16T12:19:41.749Z,98658.06
2023-05-16T12:22:18.144Z,98655.63
2023-05-16T12:24:45.049Z,98658.36
2023-05-16T12:27:12.687Z,98657.22
2023-05-16T12:29:39.604Z,98658.87
2023-05-16T12:32:08.147Z,98663.38
2023-05-16T12:34:35.116Z,98661.14
2023-05-16T12:37:02.167Z,98656.39
2023-05-16T12:39:29.118Z,98655.98
2023-05-16T12:41:55.958Z,98651.92
2023-05-16T12:44:48.063Z,98653.10
2023-05-16T12:47:15.001Z,98653.31
2023-05-16T12:49:48.658Z,98655.17
2023-05-16T12:52:20.698Z,98657.85
2023-05-16T12:54:48.067Z,98656.43
2023-05-16T12:57:14.934Z,98658.88
2023-05-16T12:59:41.768Z,98657.59
2023-05-16T13:02:08.903Z,98652.35
2023-05-16T13:04:37.240Z,98654.77
2023-05-16T13:07:04.946Z,98651.75
2023-05-16T13:09:33.020Z,98656.56
2023-05-16T13:12:00.831Z,98653.25
2023-05-16T13:14:28.344Z,98653.43
2023-05-16T13:16:55.406Z,98654.05
2023-05-16T13:19:24.558Z,98656.65
2023-05-16T13:21:51.554Z,98652.66
2023-05-16T13:24:18.381Z,98650.76
2023-05-16T13:26:45.275Z,98647.98
2023-05-16T13:29:12.492Z,98649.36
2023-05-16T13:31:39.499Z,98645.28
2023-05-16T13:34:07.141Z,98649.08
2023-05-16T13:36:49.245Z,98648.00
2023-05-16T13:39:20.565Z,98651.84
2023-05-16T13:41:51.845Z,98655.17
2023-05-16T13:44:18.826Z,98655.02
2023-05-16T13:46:46.299Z,98654.44
2023-05-16T13:49:13.142Z,98651.27
2023-05-16T13:51:39.968Z,98648.97
2023-05-16T13:54:07.025Z,98648.55
2023-05-16T13:56:33.860Z,98649.98
2023-05-16T13:59:05.831Z,98649.01
2023-05-16T14:01:34.593Z,98651.50
2023-05-16T14:04:01.594Z,98652.11
2023-05-16T14:06:28.599Z,98654.08
2023-05-16T14:08:55.662Z,98657.68
2023-05-16T14:11:28.843Z,98656.09
2023-05-16T14:13:57.006Z,98654.98
2023-05-16T14:16:23.961Z,98659.31
2023-05-16T14:18:51.106Z,98661.80
2023-05-16T14:21:18.069Z,98658.09
2023-05-16T14:23:45.455Z,98656.02
2023-05-16T14:26:12.330Z,98656.55
2023-05-16T14:28:39.210Z,98661.86
2023-05-16T14:31:07.251Z,98661.70
2023-05-16T14:33:34.125Z,98658.14
2023-05-16T14:36:01.116Z,98660.52
2023-05-16T14:38:28.342Z,98660.54
2023-05-16T14:40:55.189Z,98658.66
2023-05-16T14:43:22.098Z,98654.02
2023-05-16T14:45:49.102Z,98656.23
2023-05-16T14:48:17.432Z,98657.20
2023-05-16T14:50:49.717Z,98657.51
2023-05-16T14:53:16.650Z,98659.11
2023-05-16T14:55:44.638Z,98659.44
2023-05-16T14:58:12.020Z,98659.10
2023-05-16T15:00:38.903Z,98658.61
2023-05-16T15:03:06.133Z,98655.99
2023-05-16T15:05:33.157Z,98653.60
2023-05-16T15:08:00.688Z,98650.23
2023-05-16T15:10:27.892Z,98647.89
2023-05-16T15:12:54.995Z,98644.96
2023-05-16T15:15:21.844Z,98643.88
2023-05-16T15:17:48.842Z,98648.08
2023-05-16T15:20:16.005Z,98641.75
2023-05-16T15:22:43.004Z,98642.55
2023-05-16T15:25:15.061Z,98637.43
2023-05-16T15:27:43.737Z,98634.21
2023-05-16T15:30:11.557Z,98632.73
2023-05-16T15:32:38.443Z,98634.59
2023-05-16T15:35:06.411Z,98629.89
2023-05-16T15:37:33.354Z,98630.45
2023-05-16T15:40:00.242Z,98625.77
2023-05-16T15:42:27.289Z,98625.60
2023-05-16T15:44:54.226Z,98626.36
2023-05-16T15:47:21.078Z,98625.48
2023-05-16T15:49:47.993Z,98626.84
2023-05-16T15:52:15.229Z,98625.23
2023-05-16T15:54:42.306Z,98619.20
2023-05-16T15:57:09.295Z,98621.00
2023-05-16T15:59:36.413Z,98618.70
2023-05-16T16:02:05.573Z,98616.67
2023-05-16T16:04:32.752Z,98615.91
2023-05-16T16:06:59.680Z,98609.54
2023-05-16T16:09:26.659Z,98603.58
2023-05-16T16:11:56.491Z,98604.69
2023-05-16T16:14:24.769Z,98609.14
2023-05-16T16:16:51.837Z,98605.30
2023-05-16T16:19:19.034Z,98602.90
2023-05-16T16:21:46.595Z,98604.31
2023-05-16T16:24:13.818Z,98603.85
2023-05-16T16:26:42.239Z,98601.85
2023-05-16T16:29:09.266Z,98599.40
2023-05-16T16:31:36.242Z,98595.54
2023-05-16T16:34:03.602Z,98594.29
2023-05-16T16:36:31.750Z,98595.33
2023-05-16T16:38:59.412Z,98590.27
2023-05-16T16:41:26.326Z,98587.58
2023-05-16T16:43:53.276Z,98594.88
2023-05-16T16:46:20.356Z,98593.30
2023-05-16T16:48:48.019Z,98588.33
2023-05-16T16:51:15.376Z,98591.17
2023-05-16T16:53:42.924Z,98591.68
2023-05-16T16:56:09.984Z,98590.19
2023-05-16T16:58:37.009Z,98595.10
2023-05-16T17:01:04.323Z,98594.76
2023-05-16T17:03:31.514Z,98594.27
2023-05-16T17:05:58.940Z,98595.39
2023-05-16T17:08:25.906Z,98596.86
2023-05-16T17:10:52.874Z,98598.37
2023-05-16T17:13:20.238Z,98596.31
2023-05-16T17:15:48.077Z,98600.59
2023-05-16T17:18:15.160Z,98599.27
2023-05-16T17:20:42.090Z,98604.33
2023-05-16T17:23:09.003Z,98605.36
2023-05-16T17:25:36.009Z,98606.42
2023-05-16T17:28:02.898Z,98604.82
2023-05-16T17:30:29.789Z,98601.97
2023-05-16T17:32:56.760Z,98600.55
2023-05-16T17:35:23.888Z,98592.87
2023-05-16T17:37:51.575Z,98593.91
2023-05-16T17:40:19.093Z,98595.65
2023-05-16T17:42:46.012Z,98597.13
2023-05-16T17:45:13.977Z,98593.63
2023-05-16T17:47:41.487Z,98593.78
2023-05-16T17:50:10.228Z,98594.82
2023-05-16T17:52:38.639Z,98593.04
2023-05-16T17:55:06.876Z,98592.96
2023-05-16T17:57:34.344Z,98590.38
2023-05-16T18:00:01.868Z,98589.00
2023-05-16T18:02:32.503Z,98590.84
2023-05-16T18:04:59.702Z,98590.52
2023-05-16T18:07:30.100Z,98598.38
2023-05-16T18:09:57.004Z,98598.70
2023-05-16T18:12:23.864Z,98605.02
2023-05-16T18:14:50.809Z,98608.77
2023-05-16T18:17:17.725Z,98610.44
2023-05-16T18:19:44.772Z,98608.77
2023-05-16T18:22:13.363Z,98611.05
2023-05-16T18:24:40.477Z,98608.61
2023-05-16T18:27:07.333Z,98608.83
2023-05-16T18:29:34.605Z,98606.89
2023-05-16T18:32:01.582Z,98606.37
2023-05-16T18:34:28.588Z,98605.54
2023-05-16T18:36:55.537Z,98606.30
2023-05-16T18:39:23.025Z,98610.04
2023-05-16T18:41:50.091Z,98607.80
2023-05-16T18:44:17.251Z,98608.08
2023-05-16T18:46:46.368Z,98615.59
2023-05-16T18:49:14.072Z,98613.16
2023-05-16T18:51:41.337Z,98612.95
2023-05-16T18:54:08.316Z,98613.88
2023-05-16T18:56:35.250Z,98615.02
2023-05-16T18:59:02.183Z,98615.89
2023-05-16T19:01:29.121Z,98613.79
2023-05-16T19:03:56.539Z,98613.70
2023-05-16T19:06:23.768Z,98615.70
2023-05-16T19:08:50.818Z,98615.32
2023-05-16T19:13:34.930Z,98618.98
2023-05-16T19:16:02.025Z,98621.60
2023-05-16T19:18:29.265Z,98623.83
2023-05-16T19:20:56.422Z,98621.54
2023-05-16T19:23:24.233Z,98621.24
2023-05-16T19:25:51.441Z,98616.45
2023-05-16T19:28:18.452Z,98617.42
2023-05-16T19:30:45.413Z,98613.11
2023-05-16T19:33:12.339Z,98609.77
2023-05-16T19:35:39.687Z,98605.33
2023-05-16T19:38:06.700Z,98597.98
2023-05-16T19:40:34.366Z,98592.79
2023-05-16T19:43:01.245Z,98594.54
2023-05-16T19:45:28.434Z,98593.38
2023-05-16T19:47:55.634Z,98592.52
2023-05-16T19:50:22.806Z,98591.33
2023-05-16T19:52:49.979Z,98585.73
2023-05-16T19:55:16.871Z,98582.45
2023-05-16T19:57:43.790Z,98584.27
2023-05-16T20:00:11.403Z,98581.61
2023-05-16T20:02:43.120Z,98577.02
2023-05-16T20:05:10.403Z,98571.09
2023-05-16T20:07:39.756Z,98573.76
2023-05-16T20:10:08.551Z,98572.48
2023-05-16T20:12:35.671Z,98574.05
2023-05-16T20:15:04.877Z,98576.45
2023-05-16T20:17:31.777Z,98574.77
2023-05-16T20:19:58.785Z,98577.01
2023-05-16T20:22:25.686Z,98577.14
2023-05-16T20:24:52.521Z,98578.02
2023-05-16T20:27:20.704Z,98574.58
2023-05-16T20:29:52.627Z,98574.37
2023-05-16T20:32:19.677Z,98574.55
2023-05-16T20:34:46.781Z,98571.15
2023-05-16T20:37:14.161Z,98571.33
2023-05-16T20:39:41.050Z,98564.56
2023-05-16T20:42:11.483Z,98559.56
2023-05-16T20:44:38.977Z,98555.04
2023-05-16T20:47:06.461Z,98552.52
2023-05-16T20:49:36.200Z,98554.94
2023-05-16T20:52:03.573Z,98555.73
2023-05-16T20:54:30.542Z,98554.29
2023-05-16T20:56:57.410Z,98554.98
2023-05-16T20:59:25.021Z,98555.98
2023-05-16T21:01:52.103Z,98550.52
2023-05-16T21:04:19.265Z,98545.84
2023-05-16T21:06:46.352Z,98543.98
2023-05-16T21:09:13.291Z,98546.11
2023-05-16T21:11:40.704Z,98544.34
2023-05-16T21:14:07.807Z,98543.63
2023-05-16T21:16:34.783Z,98541.70
2023-05-16T21:19:04.321Z,98542.67
2023-05-16T21:21:31.876Z,98542.80
2023-05-16T21:23:58.716Z,98539.67
2023-05-16T21:26:26.261Z,98536.89
2023-05-16T21:28:55.366Z,98531.77
2023-05-16T21:31:22.845Z,98528.06
2023-05-16T21:33:52.530Z,98521.44
2023-05-16T21:36:22.697Z,98515.14
2023-05-16T21:38:49.585Z,98510.67
2023-05-16T21:41:18.232Z,98512.36
2023-05-16T21:43:45.189Z,98506.41
2023-05-16T21:52:14.653Z,98506.79
2023-05-16T21:54:51.161Z,98507.55
2023-05-16T21:57:21.383Z,98507.86
2023-05-16T21:59:49.998Z,98510.64
2023-05-16T22:02:22.087Z,98509.08
2023-05-16T22:04:49.899Z,98508.13
2023-05-16T22:07:23.763Z,98502.98
2023-05-16T22:09:55.121Z,98501.77
2023-05-16T22:12:29.584Z,98499.52
2023-05-16T22:14:56.766Z,98497.78
2023-05-16T22:17:23.792Z,98493.36
2023-05-16T22:19:50.768Z,98496.84
2023-05-16T22:22:17.814Z,98492.77
2023-05-16T22:24:44.514Z,98491.31
2023-05-16T22:27:11.357Z,98492.06
2023-05-16T22:29:41.646Z,98488.98
2023-05-16T22:32:11.541Z,98483.23
2023-05-16T22:34:41.652Z,98483.16
2023-05-16T22:37:08.833Z,98481.27
2023-05-16T22:39:44.308Z,98480.56
2023-05-16T22:42:11.141Z,98483.02
2023-05-16T22:44:37.850Z,98482.97
2023-05-16T22:47:07.556Z,98478.57
2023-05-16T22:49:43.943Z,98476.58
2023-05-16T22:52:13.523Z,98480.95
2023-05-16T22:54:57.864Z,98482.36
2023-05-16T22:57:29.089Z,98477.95
2023-05-16T23:00:04.341Z,98478.65
2023-05-16T23:02:34.673Z,98478.20
2023-05-16T23:05:07.834Z,98475.15
2023-05-16T23:07:36.675Z,98469.83
2023-05-16T23:10:07.024Z,98466.79
2023-05-16T23:12:35.199Z,98461.55
2023-05-16T23:15:01.970Z,98460.96
2023-05-16T23:17:29.110Z,98459.75
2023-05-16T23:19:56.663Z,98459.36
2023-05-16T23:22:24.529Z,98461.40
2023-05-16T23:24:51.543Z,98462.88
2023-05-16T23:27:22.451Z,98462.02
2023-05-16T23:29:49.328Z,98457.48
2023-05-16T23:32:16.138Z,98456.35
2023-05-16T23:34:42.860Z,98457.11
2023-05-16T23:37:09.754Z,98449.34
2023-05-16T23:39:36.543Z,98447.25
2023-05-16T23:42:08.995Z,98448.36
2023-05-16T23:44:46.202Z,98448.24
2023-05-16T23:47:13.005Z,98447.88
2023-05-16T23:49:40.205Z,98445.71
2023-05-16T23:52:32.987Z,98444.44
2023-05-16T23:55:04.396Z,98444.57
2023-05-16T23:57:31.748Z,98444.52
